createdAt,value
2023-02-12T00:01:26.668Z,52.57
2023-02-12T00:03:53.638Z,55.33
2023-02-12T00:06:20.710Z,54.03
2023-02-12T00:08:51.375Z,54.30
2023-02-12T00:11:22.499Z,59.87
2023-02-12T00:13:59.618Z,52.97
2023-02-12T00:16:31.804Z,48.77
2023-02-12T00:18:59.458Z,51.00
2023-02-12T00:21:26.840Z,47.40
2023-02-12T00:23:59.079Z,47.27
2023-02-12T00:26:32.014Z,50.77
2023-02-12T00:29:03.749Z,47.37
2023-02-12T00:34:44.898Z,46.03
2023-02-12T00:37:14.887Z,46.80
2023-02-12T00:39:46.824Z,45.87
2023-02-12T00:42:16.166Z,48.63
2023-02-12T00:44:42.873Z,45.37
2023-02-12T00:47:09.936Z,50.83
2023-02-12T00:49:37.215Z,47.33
2023-02-12T00:52:21.659Z,51.63
2023-02-12T00:55:17.133Z,46.93
2023-02-12T00:58:24.647Z,47.43
2023-02-12T01:04:35.012Z,42.97
2023-02-12T01:07:12.544Z,44.07
2023-02-12T01:09:41.010Z,47.20
2023-02-12T01:12:08.257Z,44.13
2023-02-12T01:15:06.852Z,43.60
2023-02-12T01:18:00.256Z,44.30
2023-02-12T01:20:46.346Z,45.27
2023-02-12T01:23:16.128Z,43.67
2023-02-12T01:25:53.954Z,46.43
2023-02-12T01:36:22.228Z,43.00
2023-02-12T01:43:48.954Z,37.43
2023-02-12T01:49:44.140Z,40.43
2023-02-12T01:52:14.737Z,43.17
2023-02-12T01:54:42.179Z,44.33
2023-02-12T01:57:11.106Z,47.37
2023-02-12T01:59:39.053Z,42.10
2023-02-12T02:02:06.238Z,39.57
2023-02-12T02:04:41.952Z,41.33
2023-02-12T02:07:11.173Z,40.47
2023-02-12T02:15:14.782Z,44.10
2023-02-12T02:18:02.493Z,41.43
2023-02-12T02:20:41.420Z,41.43
2023-02-12T02:23:21.782Z,44.80
2023-02-12T02:26:21.175Z,43.33
2023-02-12T02:28:52.516Z,46.20
2023-02-12T02:31:26.923Z,45.33
2023-02-12T02:34:05.571Z,43.40
2023-02-12T02:36:58.323Z,50.87
2023-02-12T02:39:37.112Z,43.50
2023-02-12T02:42:43.935Z,50.77
2023-02-12T02:45:18.796Z,47.93
2023-02-12T02:47:51.594Z,42.57
2023-02-12T02:50:23.201Z,46.93
2023-02-12T02:52:55.974Z,45.90
2023-02-12T02:55:27.069Z,48.37
2023-02-12T02:57:53.767Z,49.83
2023-02-12T03:00:31.670Z,45.37
2023-02-12T03:03:05.736Z,44.07
2023-02-12T03:05:38.367Z,48.37
2023-02-12T03:08:10.837Z,44.20
2023-02-12T03:10:51.956Z,43.97
2023-02-12T03:13:28.251Z,51.33
2023-02-12T03:16:25.686Z,49.63
2023-02-12T03:18:58.596Z,52.07
2023-02-12T03:21:32.574Z,45.60
2023-02-12T03:24:15.188Z,47.73
2023-02-12T03:27:05.157Z,44.70
2023-02-12T03:29:32.704Z,41.97
2023-02-12T03:32:18.229Z,45.37
2023-02-12T03:34:51.199Z,48.83
2023-02-12T03:37:33.238Z,47.87
2023-02-12T03:40:18.738Z,47.90
2023-02-12T03:42:56.159Z,50.43
2023-02-12T03:45:37.339Z,49.97
2023-02-12T03:48:29.179Z,47.63
2023-02-12T03:51:23.271Z,50.23
2023-02-12T03:53:50.110Z,48.97
2023-02-12T03:56:32.920Z,54.20
2023-02-12T03:59:00.443Z,51.67
2023-02-12T04:01:28.448Z,48.17
2023-02-12T04:03:56.093Z,50.97
2023-02-12T04:06:25.108Z,51.67
2023-02-12T04:08:52.754Z,48.70
2023-02-12T04:11:31.271Z,55.47
2023-02-12T04:14:41.407Z,51.33
2023-02-12T04:17:14.384Z,49.77
2023-02-12T04:19:54.846Z,50.30
2023-02-12T04:22:47.828Z,46.70
2023-02-12T04:25:51.600Z,49.37
2023-02-12T04:28:57.838Z,51.00
2023-02-12T04:31:30.725Z,51.53
2023-02-12T04:34:34.656Z,55.23
2023-02-12T04:37:14.122Z,55.17
2023-02-12T04:39:42.209Z,59.03
2023-02-12T04:42:09.246Z,54.93
2023-02-12T04:44:40.031Z,58.23
2023-02-12T04:47:07.353Z,64.97
2023-02-12T04:49:34.751Z,61.20
2023-02-12T04:52:01.499Z,52.73
2023-02-12T04:54:28.220Z,58.47
2023-02-12T04:56:54.975Z,58.23
2023-02-12T04:59:21.631Z,59.23
2023-02-12T05:01:48.669Z,59.33
2023-02-12T05:04:16.698Z,58.17
2023-02-12T05:06:44.701Z,57.67
2023-02-12T05:09:17.741Z,56.60
2023-02-12T05:11:45.310Z,62.20
2023-02-12T05:14:11.989Z,58.23
2023-02-12T05:16:38.800Z,56.33
2023-02-12T05:19:05.880Z,58.50
2023-02-12T05:21:32.638Z,56.63
2023-02-12T05:24:01.724Z,64.97
2023-02-12T05:26:28.633Z,59.93
2023-02-12T05:28:55.240Z,55.13
2023-02-12T05:31:22.067Z,57.40
2023-02-12T05:33:50.068Z,59.00
2023-02-12T05:36:20.058Z,64.07
2023-02-12T05:38:46.854Z,59.07
2023-02-12T05:41:16.259Z,70.70
2023-02-12T05:43:44.122Z,69.60
2023-02-12T05:46:12.218Z,67.57
2023-02-12T05:48:39.697Z,80.03
2023-02-12T05:51:31.913Z,74.40
2023-02-12T05:54:23.413Z,70.63
2023-02-12T05:56:50.212Z,71.63
2023-02-12T05:59:22.872Z,76.60
2023-02-12T06:01:51.727Z,74.40
2023-02-12T06:04:24.731Z,75.00
2023-02-12T06:06:56.099Z,73.10
2023-02-12T06:09:23.474Z,78.90
2023-02-12T06:11:50.125Z,73.23
2023-02-12T06:14:18.921Z,70.00
2023-02-12T06:16:50.303Z,74.13
2023-02-12T06:19:18.004Z,74.70
2023-02-12T06:21:45.126Z,87.43
2023-02-12T06:24:16.565Z,77.73
2023-02-12T06:26:44.008Z,70.83
2023-02-12T06:29:11.126Z,76.07
2023-02-12T06:31:38.217Z,73.80
2023-02-12T06:34:08.068Z,81.23
2023-02-12T06:36:37.527Z,69.33
2023-02-12T06:39:04.856Z,74.47
2023-02-12T06:41:31.566Z,79.27
2023-02-12T06:43:58.492Z,79.40
2023-02-12T06:46:25.990Z,80.93
2023-02-12T06:48:56.975Z,79.07
2023-02-12T06:51:24.250Z,90.13
2023-02-12T06:53:52.649Z,82.83
2023-02-12T06:56:22.280Z,85.23
2023-02-12T06:58:54.109Z,87.70
2023-02-12T07:01:23.770Z,86.80
2023-02-12T07:03:56.477Z,80.13
2023-02-12T07:06:24.808Z,86.10
2023-02-12T07:08:51.464Z,87.63
2023-02-12T07:11:19.000Z,90.13
2023-02-12T07:13:45.904Z,97.17
2023-02-12T07:16:15.284Z,96.77
2023-02-12T07:18:43.366Z,82.23
2023-02-12T07:21:11.912Z,90.27
2023-02-12T07:23:40.535Z,84.43
2023-02-12T07:26:11.571Z,86.37
2023-02-12T07:28:39.409Z,81.80
2023-02-12T07:31:08.679Z,85.43
2023-02-12T07:33:36.724Z,83.53
2023-02-12T07:36:09.297Z,83.63
2023-02-12T07:38:36.722Z,87.40
2023-02-12T07:41:28.104Z,87.67
2023-02-12T07:43:57.173Z,91.40
2023-02-12T07:46:30.293Z,85.77
2023-02-12T07:48:59.462Z,87.90
2023-02-12T07:51:27.470Z,93.43
2023-02-12T07:53:55.193Z,84.83
2023-02-12T07:56:25.405Z,90.13
2023-02-12T07:58:53.633Z,86.03
2023-02-12T08:01:22.498Z,78.97
2023-02-12T08:03:51.064Z,84.20
2023-02-12T08:06:23.005Z,86.17
2023-02-12T08:08:59.268Z,89.17
2023-02-12T08:11:27.794Z,88.83
2023-02-12T08:13:54.711Z,83.47
2023-02-12T08:16:25.207Z,78.93
2023-02-12T08:18:52.268Z,89.77
2023-02-12T08:21:21.798Z,89.47
2023-02-12T08:23:48.896Z,79.07
2023-02-12T08:26:23.836Z,89.33
2023-02-12T08:29:27.650Z,89.77
2023-02-12T08:32:01.795Z,90.37
2023-02-12T08:34:31.436Z,85.03
2023-02-12T08:37:01.830Z,81.47
2023-02-12T08:39:31.468Z,78.53
2023-02-12T08:42:00.277Z,77.27
2023-02-12T08:44:27.355Z,79.20
2023-02-12T08:46:54.531Z,86.20
2023-02-12T08:49:24.323Z,76.40
2023-02-12T08:51:53.698Z,90.03
2023-02-12T08:54:25.078Z,78.97
2023-02-12T08:56:59.360Z,77.67
2023-02-12T08:59:26.745Z,77.87
2023-02-12T09:01:55.067Z,74.60
2023-02-12T09:04:24.648Z,71.70
2023-02-12T09:06:52.985Z,68.93
2023-02-12T09:09:20.497Z,67.33
2023-02-12T09:11:48.639Z,72.47
2023-02-12T09:14:17.262Z,65.07
2023-02-12T09:16:44.419Z,65.40
2023-02-12T09:19:14.196Z,65.87
2023-02-12T09:21:41.565Z,68.47
2023-02-12T09:24:09.279Z,63.47
2023-02-12T09:26:36.366Z,62.00
2023-02-12T09:29:04.454Z,60.30
2023-02-12T09:31:32.460Z,56.90
2023-02-12T09:34:02.320Z,60.00
2023-02-12T09:36:29.761Z,53.30
2023-02-12T09:38:57.014Z,57.27
2023-02-12T09:41:46.922Z,55.63
2023-02-12T09:44:25.728Z,54.47
2023-02-12T09:47:05.933Z,51.63
2023-02-12T09:50:17.508Z,55.33
2023-02-12T09:52:44.514Z,47.00
2023-02-12T09:55:19.465Z,50.77
2023-02-12T09:57:46.581Z,48.87
2023-02-12T10:00:25.106Z,45.80
2023-02-12T10:02:54.457Z,45.73
2023-02-12T10:05:26.856Z,47.40
2023-02-12T10:08:25.029Z,52.47
2023-02-12T10:11:01.807Z,52.70
2023-02-12T10:13:41.943Z,51.63
2023-02-12T10:16:25.115Z,49.83
2023-02-12T10:19:04.485Z,47.43
2023-02-12T10:22:08.913Z,39.53
2023-02-12T10:25:06.746Z,35.77
2023-02-12T10:27:45.134Z,40.43
2023-02-12T10:30:44.763Z,36.80
2023-02-12T10:33:24.755Z,36.23
2023-02-12T10:35:58.985Z,36.50
2023-02-12T10:38:31.407Z,35.47
2023-02-12T10:40:58.372Z,34.90
2023-02-12T10:43:25.378Z,37.27
2023-02-12T10:45:52.163Z,37.43
2023-02-12T10:48:22.021Z,35.87
2023-02-12T10:51:03.282Z,35.33
2023-02-12T10:53:36.062Z,32.53
2023-02-12T10:56:12.297Z,32.50
2023-02-12T10:59:22.483Z,31.57
2023-02-12T11:01:52.229Z,30.77
2023-02-12T11:07:18.411Z,32.50
2023-02-12T11:09:47.857Z,30.83
2023-02-12T11:12:36.660Z,26.77
2023-02-12T11:15:15.770Z,26.87
2023-02-12T11:18:33.525Z,27.10
2023-02-12T11:21:12.597Z,24.17
2023-02-12T11:23:52.247Z,21.37
2023-02-12T11:26:19.119Z,20.57
2023-02-12T11:29:32.126Z,19.83
2023-02-12T11:32:16.367Z,14.93
2023-02-12T11:35:04.978Z,17.10
2023-02-12T11:37:43.283Z,15.93
2023-02-12T11:40:23.468Z,16.73
2023-02-12T11:43:20.545Z,17.17
2023-02-12T11:46:01.152Z,18.47
2023-02-12T11:48:37.789Z,19.03
2023-02-12T11:51:09.641Z,18.10
2023-02-12T11:53:50.395Z,17.43
2023-02-12T11:56:25.456Z,15.93
2023-02-12T11:59:17.776Z,13.83
2023-02-12T12:01:48.061Z,16.00
2023-02-12T12:04:23.469Z,14.03
2023-02-12T12:06:58.785Z,13.60
2023-02-12T12:09:28.702Z,15.67
2023-02-12T12:12:21.772Z,13.43
2023-02-12T12:14:58.177Z,12.87
2023-02-12T12:17:36.835Z,12.53
2023-02-12T12:20:12.689Z,13.60
2023-02-12T12:23:06.251Z,14.37
2023-02-12T12:25:52.600Z,12.07
2023-02-12T12:28:43.363Z,12.80
2023-02-12T12:31:32.696Z,9.57
2023-02-12T12:34:08.678Z,8.43
2023-02-12T12:36:54.177Z,9.47
2023-02-12T12:39:26.976Z,10.80
2023-02-12T12:42:15.390Z,12.90
2023-02-12T12:45:02.629Z,13.00
2023-02-12T12:48:01.634Z,10.97
2023-02-12T12:50:31.243Z,11.37
2023-02-12T12:53:20.829Z,12.47
2023-02-12T12:55:57.001Z,15.57
2023-02-12T12:58:37.486Z,13.30
2023-02-12T13:01:07.240Z,13.53
2023-02-12T13:03:52.749Z,11.13
2023-02-12T13:06:32.652Z,11.43
2023-02-12T13:09:20.885Z,10.73
2023-02-12T13:12:09.742Z,12.47
2023-02-12T13:14:42.739Z,11.87
2023-02-12T13:17:27.326Z,11.07
2023-02-12T13:20:13.025Z,11.67
2023-02-12T13:23:20.480Z,13.57
2023-02-12T13:26:18.729Z,11.90
2023-02-12T13:28:56.889Z,12.23
2023-02-12T13:31:34.499Z,11.53
2023-02-12T13:34:15.306Z,12.23
2023-02-12T13:36:42.811Z,10.27
2023-02-12T13:39:36.123Z,10.67
2023-02-12T13:42:25.445Z,9.97
2023-02-12T13:45:02.970Z,12.13
2023-02-12T13:47:32.824Z,12.07
2023-02-12T13:50:48.501Z,10.53
2023-02-12T13:53:42.621Z,11.57
2023-02-12T13:56:28.026Z,12.10
2023-02-12T13:58:55.537Z,11.80
2023-02-12T14:01:38.253Z,11.80
2023-02-12T14:04:25.752Z,11.77
2023-02-12T14:07:01.104Z,10.93
2023-02-12T14:09:38.328Z,10.13
2023-02-12T14:12:09.066Z,10.27
2023-02-12T14:14:43.052Z,13.13
2023-02-12T14:17:28.056Z,10.97
2023-02-12T14:20:22.778Z,9.77
2023-02-12T14:22:49.443Z,9.47
2023-02-12T14:25:25.075Z,9.23
2023-02-12T14:28:06.679Z,9.77
2023-02-12T14:30:40.617Z,9.90
2023-02-12T14:33:07.284Z,9.03
2023-02-12T14:35:45.198Z,9.20
2023-02-12T14:38:11.989Z,10.27
2023-02-12T14:40:42.919Z,11.63
2023-02-12T14:43:34.540Z,10.50
2023-02-12T14:46:22.845Z,8.57
2023-02-12T14:49:04.292Z,9.77
2023-02-12T14:51:51.689Z,10.40
2023-02-12T14:54:34.347Z,9.63
2023-02-12T14:57:08.803Z,13.57
2023-02-12T14:59:40.427Z,18.43
2023-02-12T15:02:14.530Z,17.07
2023-02-12T15:04:45.618Z,9.67
2023-02-12T15:07:17.188Z,10.00
2023-02-12T15:09:52.819Z,10.77
2023-02-12T15:12:46.815Z,8.57
2023-02-12T15:15:23.302Z,9.30
2023-02-12T15:18:06.736Z,10.20
2023-02-12T15:21:00.008Z,12.53
2023-02-12T15:24:09.638Z,9.73
2023-02-12T15:26:45.106Z,8.70
2023-02-12T15:29:34.284Z,9.17
2023-02-12T15:32:05.903Z,7.63
2023-02-12T15:34:36.930Z,7.93
2023-02-12T15:37:05.273Z,10.20
2023-02-12T15:39:45.405Z,11.57
2023-02-12T15:42:36.039Z,9.70
2023-02-12T15:45:08.024Z,8.33
2023-02-12T15:47:34.866Z,10.27
2023-02-12T15:50:01.728Z,13.30
2023-02-12T15:52:34.179Z,11.50
2023-02-12T15:55:03.538Z,12.70
2023-02-12T15:57:31.094Z,11.97
2023-02-12T16:00:06.745Z,9.67
2023-02-12T16:02:39.567Z,10.07
2023-02-12T16:05:07.084Z,56.23
2023-02-12T16:07:36.769Z,37.90
2023-02-12T16:10:05.500Z,17.80
2023-02-12T16:12:35.697Z,14.00
2023-02-12T16:15:03.492Z,14.40
2023-02-12T16:17:31.493Z,29.03
2023-02-12T16:20:07.694Z,44.47
2023-02-12T16:22:38.645Z,26.50
2023-02-12T16:25:18.691Z,19.37
2023-02-12T16:27:55.940Z,12.53
2023-02-12T16:30:26.283Z,13.43
2023-02-12T16:32:53.672Z,15.07
2023-02-12T16:35:34.892Z,14.00
2023-02-12T16:38:15.608Z,14.17
2023-02-12T16:41:07.023Z,14.77
2023-02-12T16:43:33.860Z,12.83
2023-02-12T16:46:05.860Z,12.37
2023-02-12T16:48:39.542Z,12.37
2023-02-12T16:51:06.644Z,11.97
2023-02-12T16:53:36.526Z,12.73
2023-02-12T16:56:04.857Z,11.07
2023-02-12T16:58:31.697Z,15.07
2023-02-12T17:01:04.662Z,28.30
2023-02-12T17:03:31.776Z,9.70
2023-02-12T17:05:58.807Z,10.60
2023-02-12T17:08:26.173Z,22.53
2023-02-12T17:10:52.998Z,25.37
2023-02-12T17:13:20.221Z,34.90
2023-02-12T17:15:50.637Z,41.43
2023-02-12T17:18:18.176Z,20.93
2023-02-12T17:20:51.423Z,14.90
2023-02-12T17:23:18.390Z,10.70
2023-02-12T17:25:45.019Z,12.00
2023-02-12T17:28:11.800Z,10.27
2023-02-12T17:30:40.875Z,39.77
2023-02-12T17:33:08.322Z,19.13
2023-02-12T17:38:34.066Z,20.40
2023-02-12T17:41:01.309Z,18.73
2023-02-12T17:43:27.967Z,12.73
2023-02-12T17:45:54.751Z,22.87
2023-02-12T17:48:21.429Z,147.90
2023-02-12T17:50:54.306Z,13.03
2023-02-12T17:53:21.153Z,22.53
2023-02-12T17:55:47.748Z,23.53
2023-02-12T17:58:14.440Z,23.60
2023-02-12T18:00:41.991Z,17.70
2023-02-12T18:03:08.710Z,14.30
2023-02-12T18:05:41.465Z,11.30
2023-02-12T18:08:08.904Z,13.90
2023-02-12T18:10:43.440Z,10.17
2023-02-12T18:13:10.634Z,13.20
2023-02-12T18:15:39.732Z,8.97
2023-02-12T18:18:06.794Z,9.57
2023-02-12T18:20:33.878Z,12.70
2023-02-12T18:23:02.776Z,11.63
2023-02-12T18:25:29.516Z,8.87
2023-02-12T18:27:56.624Z,10.23
2023-02-12T18:30:23.794Z,8.40
2023-02-12T18:32:50.566Z,21.90
2023-02-12T18:35:17.461Z,53.23
2023-02-12T18:37:44.358Z,12.53
2023-02-12T18:40:11.923Z,42.83
2023-02-12T18:42:38.749Z,12.07
2023-02-12T18:45:05.791Z,10.20
2023-02-12T18:47:32.413Z,11.47
2023-02-12T18:50:00.106Z,12.07
2023-02-12T18:52:26.817Z,11.33
2023-02-12T18:54:53.410Z,12.37
2023-02-12T18:57:20.265Z,12.00
2023-02-12T18:59:46.829Z,13.43
2023-02-12T19:02:14.023Z,10.20
2023-02-12T19:04:41.341Z,10.33
2023-02-12T19:07:08.690Z,11.90
2023-02-12T19:09:35.416Z,11.20
2023-02-12T19:12:02.321Z,11.23
2023-02-12T19:14:29.208Z,11.63
2023-02-12T19:16:55.891Z,11.90
2023-02-12T19:19:23.216Z,12.83
2023-02-12T19:21:50.503Z,11.33
2023-02-12T19:24:17.737Z,10.37
2023-02-12T19:26:45.127Z,10.97
2023-02-12T19:29:13.154Z,11.67
2023-02-12T19:31:44.135Z,13.07
2023-02-12T19:34:19.991Z,12.57
2023-02-12T19:36:48.059Z,12.83
2023-02-12T19:39:19.975Z,11.60
2023-02-12T19:41:46.853Z,12.27
2023-02-12T19:44:25.190Z,13.83
2023-02-12T19:46:53.508Z,12.10
2023-02-12T19:49:31.741Z,13.70
2023-02-12T19:52:51.144Z,13.07
2023-02-12T19:55:30.046Z,13.30
2023-02-12T19:57:56.741Z,14.17
2023-02-12T20:00:26.520Z,12.00
2023-02-12T20:02:53.398Z,14.10
2023-02-12T20:05:22.199Z,14.30
2023-02-12T20:07:48.796Z,14.33
2023-02-12T20:10:18.186Z,15.00
2023-02-12T20:12:46.191Z,15.97
2023-02-12T20:15:13.232Z,13.40
2023-02-12T20:17:39.873Z,12.43
2023-02-12T20:20:07.307Z,13.33
2023-02-12T20:22:33.948Z,11.53
2023-02-12T20:25:00.714Z,11.10
2023-02-12T20:27:28.308Z,10.37
2023-02-12T20:29:55.406Z,12.07
2023-02-12T20:32:22.264Z,12.23
2023-02-12T20:34:52.075Z,9.80
2023-02-12T20:37:19.064Z,10.50
2023-02-12T20:39:45.751Z,9.77
2023-02-12T20:42:12.373Z,10.37
2023-02-12T20:44:39.236Z,10.13
2023-02-12T20:47:06.097Z,10.07
2023-02-12T20:49:33.982Z,8.70
2023-02-12T20:52:00.626Z,9.90
2023-02-12T20:54:27.328Z,8.57
2023-02-12T20:56:53.979Z,10.00
2023-02-12T20:59:22.147Z,8.73
2023-02-12T21:01:50.425Z,8.10
2023-02-12T21:04:20.010Z,8.50
2023-02-12T21:06:47.142Z,7.30
2023-02-12T21:09:24.560Z,7.73
2023-02-12T21:12:27.172Z,8.20
2023-02-12T21:15:00.833Z,6.60
2023-02-12T21:17:30.130Z,8.10
2023-02-12T21:20:07.805Z,7.63
2023-02-12T21:22:37.285Z,8.17
2023-02-12T21:25:06.960Z,6.60
2023-02-12T21:27:36.174Z,6.93
2023-02-12T21:30:16.555Z,7.33
2023-02-12T21:32:54.792Z,5.30
2023-02-12T21:35:26.372Z,6.30
2023-02-12T21:39:54.479Z,6.87
2023-02-12T21:42:24.240Z,6.90
2023-02-12T21:44:54.519Z,6.17
2023-02-12T21:47:22.954Z,4.23
2023-02-12T21:50:09.321Z,4.90
2023-02-12T21:52:40.177Z,5.60
2023-02-12T21:55:08.728Z,7.27
2023-02-12T21:57:35.772Z,5.03
2023-02-12T22:00:05.513Z,5.30
2023-02-12T22:02:42.213Z,6.17
2023-02-12T22:05:12.513Z,6.63
2023-02-12T22:10:56.155Z,6.43
2023-02-12T22:13:26.301Z,7.20
2023-02-12T22:15:55.175Z,5.43
2023-02-12T22:18:22.198Z,7.63
2023-02-12T22:21:00.102Z,5.63
2023-02-12T22:23:32.343Z,5.23
2023-02-12T22:26:29.466Z,6.33
2023-02-12T22:29:02.893Z,5.33
2023-02-12T22:31:35.892Z,4.83
2023-02-12T22:34:07.740Z,5.10
2023-02-12T22:36:36.868Z,4.40
2023-02-12T22:39:04.693Z,4.53
2023-02-12T22:41:31.679Z,3.90
2023-02-12T22:44:00.045Z,3.53
2023-02-12T22:46:27.544Z,4.07
2023-02-12T22:48:54.586Z,4.83
2023-02-12T22:51:27.846Z,3.67
2023-02-12T22:53:55.633Z,4.90
2023-02-12T22:56:24.138Z,3.93
2023-02-12T22:59:00.177Z,3.90
2023-02-12T23:01:28.373Z,4.57
2023-02-12T23:03:55.594Z,5.33
2023-02-12T23:06:25.049Z,5.13
2023-02-12T23:08:54.137Z,4.83
2023-02-12T23:11:22.009Z,4.53
2023-02-12T23:13:48.648Z,4.07
2023-02-12T23:16:15.448Z,6.57
2023-02-12T23:18:42.489Z,5.57
2023-02-12T23:21:09.429Z,6.07
2023-02-12T23:23:36.035Z,4.70
2023-02-12T23:26:03.282Z,4.93
2023-02-12T23:28:31.328Z,5.83
2023-02-12T23:30:59.111Z,5.30
2023-02-12T23:33:25.977Z,7.47
2023-02-12T23:35:52.839Z,5.30
2023-02-12T23:38:19.418Z,5.93
2023-02-12T23:40:47.626Z,4.97
2023-02-12T23:43:14.536Z,5.27
2023-02-12T23:45:43.603Z,6.03
2023-02-12T23:48:10.615Z,4.57
2023-02-12T23:50:37.471Z,5.00
2023-02-12T23:53:04.258Z,4.83
2023-02-12T23:55:30.940Z,4.97
2023-02-12T23:57:58.220Z,5.43
